sensor_id;sensor_type;location;lat;lon;timestamp;temperature;humidity
76857;DHT22;69705;44.686;37.628;2023-05-10T00:00:37;11.75;89.02
76857;DHT22;69705;44.686;37.628;2023-05-10T00:03:03;11.75;88.76
76857;DHT22;69705;44.686;37.628;2023-05-10T00:05:31;11.74;87.77
76857;DHT22;69705;44.686;37.628;2023-05-10T00:07:58;11.73;88.20
76857;DHT22;69705;44.686;37.628;2023-05-10T00:10:24;11.68;86.90
76857;DHT22;69705;44.686;37.628;2023-05-10T00:12:51;11.63;87.44
76857;DHT22;69705;44.686;37.628;2023-05-10T00:15:18;11.51;87.73
76857;DHT22;69705;44.686;37.628;2023-05-10T00:17:44;11.34;88.06
76857;DHT22;69705;44.686;37.628;2023-05-10T00:20:11;11.33;88.29
76857;DHT22;69705;44.686;37.628;2023-05-10T00:22:38;11.29;87.98
76857;DHT22;69705;44.686;37.628;2023-05-10T00:25:09;11.23;87.90
76857;DHT22;69705;44.686;37.628;2023-05-10T00:27:36;11.20;87.89
76857;DHT22;69705;44.686;37.628;2023-05-10T00:30:03;11.18;88.69
76857;DHT22;69705;44.686;37.628;2023-05-10T00:32:31;11.16;88.28
76857;DHT22;69705;44.686;37.628;2023-05-10T00:34:58;11.16;88.80
76857;DHT22;69705;44.686;37.628;2023-05-10T00:37:24;11.12;90.28
76857;DHT22;69705;44.686;37.628;2023-05-10T00:39:51;11.09;89.76
76857;DHT22;69705;44.686;37.628;2023-05-10T00:42:17;11.12;89.75
76857;DHT22;69705;44.686;37.628;2023-05-10T00:44:44;11.07;89.03
76857;DHT22;69705;44.686;37.628;2023-05-10T00:47:11;11.04;89.06
76857;DHT22;69705;44.686;37.628;2023-05-10T00:49:38;10.98;88.78
76857;DHT22;69705;44.686;37.628;2023-05-10T00:52:04;10.92;89.24
76857;DHT22;69705;44.686;37.628;2023-05-10T00:54:32;10.88;88.85
76857;DHT22;69705;44.686;37.628;2023-05-10T00:56:59;10.82;89.33
76857;DHT22;69705;44.686;37.628;2023-05-10T00:59:25;10.81;89.35
76857;DHT22;69705;44.686;37.628;2023-05-10T01:01:52;10.75;89.17
76857;DHT22;69705;44.686;37.628;2023-05-10T01:04:19;10.69;89.38
76857;DHT22;69705;44.686;37.628;2023-05-10T01:06:52;10.71;88.99
76857;DHT22;69705;44.686;37.628;2023-05-10T01:09:21;10.63;89.79
76857;DHT22;69705;44.686;37.628;2023-05-10T01:11:48;10.62;89.78
76857;DHT22;69705;44.686;37.628;2023-05-10T01:14:18;10.52;89.10
76857;DHT22;69705;44.686;37.628;2023-05-10T01:16:48;10.44;90.19
76857;DHT22;69705;44.686;37.628;2023-05-10T01:19:29;10.33;89.80
76857;DHT22;69705;44.686;37.628;2023-05-10T01:32:43;10.24;89.91
76857;DHT22;69705;44.686;37.628;2023-05-10T01:35:42;10.16;90.45
76857;DHT22;69705;44.686;37.628;2023-05-10T01:41:38;10.19;90.10
76857;DHT22;69705;44.686;37.628;2023-05-10T01:46:42;10.16;90.84
76857;DHT22;69705;44.686;37.628;2023-05-10T01:49:23;10.18;90.75
76857;DHT22;69705;44.686;37.628;2023-05-10T01:51:53;10.25;91.15
76857;DHT22;69705;44.686;37.628;2023-05-10T01:54:22;10.26;91.01
76857;DHT22;69705;44.686;37.628;2023-05-10T01:56:55;10.30;91.44
76857;DHT22;69705;44.686;37.628;2023-05-10T01:59:29;10.34;91.68
76857;DHT22;69705;44.686;37.628;2023-05-10T02:01:58;10.35;91.27
76857;DHT22;69705;44.686;37.628;2023-05-10T02:04:27;10.38;91.62
76857;DHT22;69705;44.686;37.628;2023-05-10T02:06:55;10.38;91.56
76857;DHT22;69705;44.686;37.628;2023-05-10T02:09:22;10.39;91.68
76857;DHT22;69705;44.686;37.628;2023-05-10T02:11:50;10.36;92.27
76857;DHT22;69705;44.686;37.628;2023-05-10T02:14:17;10.36;91.69
76857;DHT22;69705;44.686;37.628;2023-05-10T02:16:45;10.31;92.50
76857;DHT22;69705;44.686;37.628;2023-05-10T02:19:13;10.27;91.69
76857;DHT22;69705;44.686;37.628;2023-05-10T02:21:42;10.28;91.54
76857;DHT22;69705;44.686;37.628;2023-05-10T02:24:10;10.33;92.34
76857;DHT22;69705;44.686;37.628;2023-05-10T02:26:38;10.27;91.06
76857;DHT22;69705;44.686;37.628;2023-05-10T02:29:05;10.21;91.50
76857;DHT22;69705;44.686;37.628;2023-05-10T02:31:33;10.24;91.61
76857;DHT22;69705;44.686;37.628;2023-05-10T02:34:02;10.25;90.56
76857;DHT22;69705;44.686;37.628;2023-05-10T02:36:29;10.26;91.83
76857;DHT22;69705;44.686;37.628;2023-05-10T02:38:57;10.35;90.95
76857;DHT22;69705;44.686;37.628;2023-05-10T02:41:25;10.39;90.38
76857;DHT22;69705;44.686;37.628;2023-05-10T02:43:56;10.28;90.33
76857;DHT22;69705;44.686;37.628;2023-05-10T02:46:24;10.40;91.24
76857;DHT22;69705;44.686;37.628;2023-05-10T02:48:51;10.42;91.63
76857;DHT22;69705;44.686;37.628;2023-05-10T02:51:18;10.42;91.41
76857;DHT22;69705;44.686;37.628;2023-05-10T02:53:46;10.42;92.00
76857;DHT22;69705;44.686;37.628;2023-05-10T02:56:22;10.44;91.76
76857;DHT22;69705;44.686;37.628;2023-05-10T02:58:52;10.52;92.61
76857;DHT22;69705;44.686;37.628;2023-05-10T03:01:18;10.53;91.63
76857;DHT22;69705;44.686;37.628;2023-05-10T03:03:45;10.60;92.18
76857;DHT22;69705;44.686;37.628;2023-05-10T03:06:12;10.67;91.83
76857;DHT22;69705;44.686;37.628;2023-05-10T03:08:38;10.71;91.43
76857;DHT22;69705;44.686;37.628;2023-05-10T03:17:16;10.94;90.68
76857;DHT22;69705;44.686;37.628;2023-05-10T03:19:57;11.00;91.22
76857;DHT22;69705;44.686;37.628;2023-05-10T03:22:32;11.01;90.18
76857;DHT22;69705;44.686;37.628;2023-05-10T03:25:00;11.00;90.02
76857;DHT22;69705;44.686;37.628;2023-05-10T03:27:31;11.02;90.57
76857;DHT22;69705;44.686;37.628;2023-05-10T03:30:01;11.09;90.50
76857;DHT22;69705;44.686;37.628;2023-05-10T03:32:30;11.13;90.47
76857;DHT22;69705;44.686;37.628;2023-05-10T03:35:05;11.24;91.36
76857;DHT22;69705;44.686;37.628;2023-05-10T03:37:32;11.33;89.70
76857;DHT22;69705;44.686;37.628;2023-05-10T03:39:59;11.44;90.15
76857;DHT22;69705;44.686;37.628;2023-05-10T03:42:26;11.55;90.26
76857;DHT22;69705;44.686;37.628;2023-05-10T03:44:52;11.59;89.52
76857;DHT22;69705;44.686;37.628;2023-05-10T03:47:19;11.66;89.27
76857;DHT22;69705;44.686;37.628;2023-05-10T03:49:46;11.70;89.31
76857;DHT22;69705;44.686;37.628;2023-05-10T03:52:13;11.70;90.08
76857;DHT22;69705;44.686;37.628;2023-05-10T03:54:39;11.67;89.76
76857;DHT22;69705;44.686;37.628;2023-05-10T03:57:06;11.66;89.47
76857;DHT22;69705;44.686;37.628;2023-05-10T03:59:32;11.68;89.67
76857;DHT22;69705;44.686;37.628;2023-05-10T04:01:59;11.71;90.08
76857;DHT22;69705;44.686;37.628;2023-05-10T04:04:25;11.74;90.00
76857;DHT22;69705;44.686;37.628;2023-05-10T04:06:52;11.78;89.63
76857;DHT22;69705;44.686;37.628;2023-05-10T04:09:19;11.81;89.34
76857;DHT22;69705;44.686;37.628;2023-05-10T04:11:45;11.89;89.82
76857;DHT22;69705;44.686;37.628;2023-05-10T04:14:12;11.89;88.19
76857;DHT22;69705;44.686;37.628;2023-05-10T04:16:38;11.92;87.56
76857;DHT22;69705;44.686;37.628;2023-05-10T04:19:05;12.00;88.55
76857;DHT22;69705;44.686;37.628;2023-05-10T04:21:32;12.04;88.20
76857;DHT22;69705;44.686;37.628;2023-05-10T04:23:59;12.16;87.96
76857;DHT22;69705;44.686;37.628;2023-05-10T04:26:25;12.15;87.35
76857;DHT22;69705;44.686;37.628;2023-05-10T04:28:52;12.16;87.64
76857;DHT22;69705;44.686;37.628;2023-05-10T04:31:18;12.16;87.57
76857;DHT22;69705;44.686;37.628;2023-05-10T04:33:45;12.23;87.06
76857;DHT22;69705;44.686;37.628;2023-05-10T04:36:12;12.32;87.10
76857;DHT22;69705;44.686;37.628;2023-05-10T04:38:38;12.37;86.32
76857;DHT22;69705;44.686;37.628;2023-05-10T04:41:09;12.46;86.25
76857;DHT22;69705;44.686;37.628;2023-05-10T04:43:37;12.45;84.21
76857;DHT22;69705;44.686;37.628;2023-05-10T04:46:04;12.50;81.58
76857;DHT22;69705;44.686;37.628;2023-05-10T04:48:31;12.49;83.23
76857;DHT22;69705;44.686;37.628;2023-05-10T04:50:58;12.50;83.83
76857;DHT22;69705;44.686;37.628;2023-05-10T04:53:24;12.52;82.23
76857;DHT22;69705;44.686;37.628;2023-05-10T04:55:51;12.63;81.62
76857;DHT22;69705;44.686;37.628;2023-05-10T04:58:17;12.67;81.49
76857;DHT22;69705;44.686;37.628;2023-05-10T05:00:44;12.69;81.87
76857;DHT22;69705;44.686;37.628;2023-05-10T05:03:10;12.76;83.33
76857;DHT22;69705;44.686;37.628;2023-05-10T05:05:37;12.84;81.47
76857;DHT22;69705;44.686;37.628;2023-05-10T05:08:05;12.82;81.81
76857;DHT22;69705;44.686;37.628;2023-05-10T05:10:31;12.90;82.32
76857;DHT22;69705;44.686;37.628;2023-05-10T05:12:58;12.86;82.50
76857;DHT22;69705;44.686;37.628;2023-05-10T05:15:24;12.76;82.25
76857;DHT22;69705;44.686;37.628;2023-05-10T05:17:51;12.71;81.11
76857;DHT22;69705;44.686;37.628;2023-05-10T05:20:18;12.66;80.89
76857;DHT22;69705;44.686;37.628;2023-05-10T05:22:45;12.71;82.10
76857;DHT22;69705;44.686;37.628;2023-05-10T05:25:11;12.72;80.17
76857;DHT22;69705;44.686;37.628;2023-05-10T05:27:38;12.72;80.37
76857;DHT22;69705;44.686;37.628;2023-05-10T05:30:06;12.81;80.64
76857;DHT22;69705;44.686;37.628;2023-05-10T05:32:32;12.87;81.40
76857;DHT22;69705;44.686;37.628;2023-05-10T05:34:59;12.89;80.33
76857;DHT22;69705;44.686;37.628;2023-05-10T05:37:26;12.94;79.46
76857;DHT22;69705;44.686;37.628;2023-05-10T05:39:52;13.01;80.18
76857;DHT22;69705;44.686;37.628;2023-05-10T05:42:20;13.06;80.84
76857;DHT22;69705;44.686;37.628;2023-05-10T05:44:47;13.06;79.50
76857;DHT22;69705;44.686;37.628;2023-05-10T05:47:13;13.14;80.65
76857;DHT22;69705;44.686;37.628;2023-05-10T05:49:40;13.12;78.16
76857;DHT22;69705;44.686;37.628;2023-05-10T05:52:06;13.14;78.56
76857;DHT22;69705;44.686;37.628;2023-05-10T05:54:33;13.18;76.50
76857;DHT22;69705;44.686;37.628;2023-05-10T05:57:00;13.25;76.90
76857;DHT22;69705;44.686;37.628;2023-05-10T05:59:27;13.25;76.56
76857;DHT22;69705;44.686;37.628;2023-05-10T06:01:54;13.33;77.18
76857;DHT22;69705;44.686;37.628;2023-05-10T06:04:20;13.43;78.21
76857;DHT22;69705;44.686;37.628;2023-05-10T06:06:47;13.49;75.47
76857;DHT22;69705;44.686;37.628;2023-05-10T06:09:13;13.54;77.89
76857;DHT22;69705;44.686;37.628;2023-05-10T06:11:40;13.61;78.13
76857;DHT22;69705;44.686;37.628;2023-05-10T06:14:07;13.66;75.76
76857;DHT22;69705;44.686;37.628;2023-05-10T06:16:34;13.62;75.52
76857;DHT22;69705;44.686;37.628;2023-05-10T06:19:01;13.60;75.04
76857;DHT22;69705;44.686;37.628;2023-05-10T06:21:29;13.63;75.64
76857;DHT22;69705;44.686;37.628;2023-05-10T06:23:56;13.59;76.46
76857;DHT22;69705;44.686;37.628;2023-05-10T06:26:23;13.62;77.39
76857;DHT22;69705;44.686;37.628;2023-05-10T06:28:50;13.68;74.31
76857;DHT22;69705;44.686;37.628;2023-05-10T06:31:17;13.69;75.41
76857;DHT22;69705;44.686;37.628;2023-05-10T06:33:44;13.64;73.63
76857;DHT22;69705;44.686;37.628;2023-05-10T06:36:11;13.62;74.81
76857;DHT22;69705;44.686;37.628;2023-05-10T06:38:38;13.60;74.89
76857;DHT22;69705;44.686;37.628;2023-05-10T06:41:05;13.68;74.56
76857;DHT22;69705;44.686;37.628;2023-05-10T06:43:32;13.77;74.89
76857;DHT22;69705;44.686;37.628;2023-05-10T06:45:58;13.91;74.31
76857;DHT22;69705;44.686;37.628;2023-05-10T06:48:25;14.11;73.27
76857;DHT22;69705;44.686;37.628;2023-05-10T06:50:52;14.23;74.35
76857;DHT22;69705;44.686;37.628;2023-05-10T06:53:19;14.49;75.58
76857;DHT22;69705;44.686;37.628;2023-05-10T06:55:46;14.69;72.58
76857;DHT22;69705;44.686;37.628;2023-05-10T06:58:12;14.80;71.48
76857;DHT22;69705;44.686;37.628;2023-05-10T07:00:39;14.79;69.78
76857;DHT22;69705;44.686;37.628;2023-05-10T07:03:12;14.81;71.01
76857;DHT22;69705;44.686;37.628;2023-05-10T07:05:38;14.84;69.50
76857;DHT22;69705;44.686;37.628;2023-05-10T07:08:05;15.06;71.90
76857;DHT22;69705;44.686;37.628;2023-05-10T07:10:32;15.14;72.02
76857;DHT22;69705;44.686;37.628;2023-05-10T07:12:59;15.21;70.24
76857;DHT22;69705;44.686;37.628;2023-05-10T07:15:27;15.22;71.34
76857;DHT22;69705;44.686;37.628;2023-05-10T07:17:54;15.36;66.81
76857;DHT22;69705;44.686;37.628;2023-05-10T07:20:21;15.62;67.98
76857;DHT22;69705;44.686;37.628;2023-05-10T07:22:49;15.69;64.72
76857;DHT22;69705;44.686;37.628;2023-05-10T11:15:38;16.40;65.98
76857;DHT22;69705;44.686;37.628;2023-05-10T11:18:18;16.29;62.19
76857;DHT22;69705;44.686;37.628;2023-05-10T11:21:07;16.51;63.83
76857;DHT22;69705;44.686;37.628;2023-05-10T11:26:13;17.28;64.05
76857;DHT22;69705;44.686;37.628;2023-05-10T11:28:45;17.45;63.45
76857;DHT22;69705;44.686;37.628;2023-05-10T11:31:17;17.50;59.87
76857;DHT22;69705;44.686;37.628;2023-05-10T11:33:50;17.48;59.87
76857;DHT22;69705;44.686;37.628;2023-05-10T11:36:20;17.53;60.23
76857;DHT22;69705;44.686;37.628;2023-05-10T11:38:48;17.61;61.35
76857;DHT22;69705;44.686;37.628;2023-05-10T11:41:17;17.63;60.80
76857;DHT22;69705;44.686;37.628;2023-05-10T11:43:46;17.68;60.18
76857;DHT22;69705;44.686;37.628;2023-05-10T11:46:15;17.61;58.25
76857;DHT22;69705;44.686;37.628;2023-05-10T11:48:44;17.70;59.61
76857;DHT22;69705;44.686;37.628;2023-05-10T11:51:11;17.69;60.98
76857;DHT22;69705;44.686;37.628;2023-05-10T11:53:38;17.52;60.22
76857;DHT22;69705;44.686;37.628;2023-05-10T11:56:06;17.28;58.95
76857;DHT22;69705;44.686;37.628;2023-05-10T11:58:34;17.13;63.21
76857;DHT22;69705;44.686;37.628;2023-05-10T12:01:01;17.02;61.28
76857;DHT22;69705;44.686;37.628;2023-05-10T12:03:30;16.98;62.05
76857;DHT22;69705;44.686;37.628;2023-05-10T12:05:58;16.93;63.34
76857;DHT22;69705;44.686;37.628;2023-05-10T12:08:26;16.86;62.02
76857;DHT22;69705;44.686;37.628;2023-05-10T12:11:03;16.88;64.06
76857;DHT22;69705;44.686;37.628;2023-05-10T12:13:30;16.93;61.69
76857;DHT22;69705;44.686;37.628;2023-05-10T12:16:12;16.82;63.56
76857;DHT22;69705;44.686;37.628;2023-05-10T12:18:40;16.81;64.44
76857;DHT22;69705;44.686;37.628;2023-05-10T12:21:12;16.78;62.05
76857;DHT22;69705;44.686;37.628;2023-05-10T12:23:39;16.91;59.56
76857;DHT22;69705;44.686;37.628;2023-05-10T12:26:08;17.24;63.58
76857;DHT22;69705;44.686;37.628;2023-05-10T12:28:37;17.53;61.49
76857;DHT22;69705;44.686;37.628;2023-05-10T12:31:06;17.91;61.18
76857;DHT22;69705;44.686;37.628;2023-05-10T12:33:37;17.96;57.45
76857;DHT22;69705;44.686;37.628;2023-05-10T12:36:16;17.78;59.67
76857;DHT22;69705;44.686;37.628;2023-05-10T12:38:45;17.69;61.59
76857;DHT22;69705;44.686;37.628;2023-05-10T12:41:18;17.53;58.27
76857;DHT22;69705;44.686;37.628;2023-05-10T12:43:45;17.32;60.51
76857;DHT22;69705;44.686;37.628;2023-05-10T12:46:16;17.21;60.66
76857;DHT22;69705;44.686;37.628;2023-05-10T12:48:44;17.19;58.78
76857;DHT22;69705;44.686;37.628;2023-05-10T12:51:12;17.35;59.38
76857;DHT22;69705;44.686;37.628;2023-05-10T12:53:42;17.54;58.64
76857;DHT22;69705;44.686;37.628;2023-05-10T12:56:09;17.78;58.21
76857;DHT22;69705;44.686;37.628;2023-05-10T12:58:35;17.87;57.13
76857;DHT22;69705;44.686;37.628;2023-05-10T13:01:02;17.67;51.66
76857;DHT22;69705;44.686;37.628;2023-05-10T13:03:31;17.72;58.48
76857;DHT22;69705;44.686;37.628;2023-05-10T13:05:57;17.79;57.33
76857;DHT22;69705;44.686;37.628;2023-05-10T13:08:24;17.85;58.99
76857;DHT22;69705;44.686;37.628;2023-05-10T13:10:51;17.82;57.61
76857;DHT22;69705;44.686;37.628;2023-05-10T13:13:18;17.84;54.80
76857;DHT22;69705;44.686;37.628;2023-05-10T13:15:45;17.83;56.59
76857;DHT22;69705;44.686;37.628;2023-05-10T13:18:12;17.85;56.69
76857;DHT22;69705;44.686;37.628;2023-05-10T13:20:39;17.82;59.47
76857;DHT22;69705;44.686;37.628;2023-05-10T13:23:05;17.70;60.01
76857;DHT22;69705;44.686;37.628;2023-05-10T13:25:32;17.43;59.24
76857;DHT22;69705;44.686;37.628;2023-05-10T13:28:01;17.10;58.13
76857;DHT22;69705;44.686;37.628;2023-05-10T13:30:28;16.81;59.91
76857;DHT22;69705;44.686;37.628;2023-05-10T13:32:55;16.62;59.12
76857;DHT22;69705;44.686;37.628;2023-05-10T13:35:22;16.51;61.92
76857;DHT22;69705;44.686;37.628;2023-05-10T13:37:49;16.48;61.56
76857;DHT22;69705;44.686;37.628;2023-05-10T13:40:16;16.55;64.45
76857;DHT22;69705;44.686;37.628;2023-05-10T13:42:42;16.30;59.90
76857;DHT22;69705;44.686;37.628;2023-05-10T13:45:10;16.34;64.05
76857;DHT22;69705;44.686;37.628;2023-05-10T13:47:38;16.39;60.80
76857;DHT22;69705;44.686;37.628;2023-05-10T13:50:05;16.48;61.93
76857;DHT22;69705;44.686;37.628;2023-05-10T13:52:32;16.72;58.83
76857;DHT22;69705;44.686;37.628;2023-05-10T13:54:59;17.01;56.91
76857;DHT22;69705;44.686;37.628;2023-05-10T13:57:26;17.44;57.73
76857;DHT22;69705;44.686;37.628;2023-05-10T13:59:53;17.88;58.19
76857;DHT22;69705;44.686;37.628;2023-05-10T14:02:20;18.14;55.20
76857;DHT22;69705;44.686;37.628;2023-05-10T14:04:47;18.38;55.71
76857;DHT22;69705;44.686;37.628;2023-05-10T14:07:14;17.80;54.17
76857;DHT22;69705;44.686;37.628;2023-05-10T14:09:41;17.81;56.52
76857;DHT22;69705;44.686;37.628;2023-05-10T14:12:07;17.73;55.69
76857;DHT22;69705;44.686;37.628;2023-05-10T14:14:34;17.49;57.16
76857;DHT22;69705;44.686;37.628;2023-05-10T14:17:01;17.23;57.32
76857;DHT22;69705;44.686;37.628;2023-05-10T14:19:28;17.05;56.37
76857;DHT22;69705;44.686;37.628;2023-05-10T14:21:58;16.94;60.29
76857;DHT22;69705;44.686;37.628;2023-05-10T14:24:25;16.75;58.86
76857;DHT22;69705;44.686;37.628;2023-05-10T14:26:51;16.71;59.99
76857;DHT22;69705;44.686;37.628;2023-05-10T14:29:21;16.58;61.86
76857;DHT22;69705;44.686;37.628;2023-05-10T14:31:48;16.51;60.48
76857;DHT22;69705;44.686;37.628;2023-05-10T14:34:14;16.39;60.03
76857;DHT22;69705;44.686;37.628;2023-05-10T14:36:41;16.27;60.97
76857;DHT22;69705;44.686;37.628;2023-05-10T14:39:07;16.15;60.31
76857;DHT22;69705;44.686;37.628;2023-05-10T14:41:36;16.07;63.80
76857;DHT22;69705;44.686;37.628;2023-05-10T14:44:03;16.05;62.24
76857;DHT22;69705;44.686;37.628;2023-05-10T14:46:35;16.07;61.56
76857;DHT22;69705;44.686;37.628;2023-05-10T14:49:01;16.07;62.70
76857;DHT22;69705;44.686;37.628;2023-05-10T14:51:28;16.05;64.25
76857;DHT22;69705;44.686;37.628;2023-05-10T14:53:54;16.07;63.28
76857;DHT22;69705;44.686;37.628;2023-05-10T14:56:21;16.01;60.12
76857;DHT22;69705;44.686;37.628;2023-05-10T14:58:49;16.08;62.84
76857;DHT22;69705;44.686;37.628;2023-05-10T15:01:16;16.00;60.95
76857;DHT22;69705;44.686;37.628;2023-05-10T15:03:42;15.90;60.64
76857;DHT22;69705;44.686;37.628;2023-05-10T15:06:09;15.72;61.95
76857;DHT22;69705;44.686;37.628;2023-05-10T15:08:36;15.59;62.26
76857;DHT22;69705;44.686;37.628;2023-05-10T15:11:02;15.49;60.25
76857;DHT22;69705;44.686;37.628;2023-05-10T15:13:29;15.41;63.35
76857;DHT22;69705;44.686;37.628;2023-05-10T15:15:55;15.39;65.88
76857;DHT22;69705;44.686;37.628;2023-05-10T15:18:22;15.37;61.02
76857;DHT22;69705;44.686;37.628;2023-05-10T15:20:49;15.37;62.15
76857;DHT22;69705;44.686;37.628;2023-05-10T15:23:15;15.34;64.47
76857;DHT22;69705;44.686;37.628;2023-05-10T15:25:42;15.30;63.75
76857;DHT22;69705;44.686;37.628;2023-05-10T15:28:09;15.37;62.44
76857;DHT22;69705;44.686;37.628;2023-05-10T15:30:35;15.37;64.38
76857;DHT22;69705;44.686;37.628;2023-05-10T15:33:02;15.38;65.31
76857;DHT22;69705;44.686;37.628;2023-05-10T15:35:28;15.38;62.40
76857;DHT22;69705;44.686;37.628;2023-05-10T15:37:55;15.07;57.15
76857;DHT22;69705;44.686;37.628;2023-05-10T15:40:21;15.03;61.09
76857;DHT22;69705;44.686;37.628;2023-05-10T15:42:49;14.98;63.31
76857;DHT22;69705;44.686;37.628;2023-05-10T15:45:15;14.89;60.36
76857;DHT22;69705;44.686;37.628;2023-05-10T15:47:42;14.82;62.79
76857;DHT22;69705;44.686;37.628;2023-05-10T15:50:10;14.69;65.63
76857;DHT22;69705;44.686;37.628;2023-05-10T15:52:37;14.57;64.00
76857;DHT22;69705;44.686;37.628;2023-05-10T15:55:04;14.48;64.88
76857;DHT22;69705;44.686;37.628;2023-05-10T15:57:41;14.36;65.18
76857;DHT22;69705;44.686;37.628;2023-05-10T16:00:09;14.19;64.38
76857;DHT22;69705;44.686;37.628;2023-05-10T16:02:39;14.06;63.66
76857;DHT22;69705;44.686;37.628;2023-05-10T16:05:07;13.98;65.99
76857;DHT22;69705;44.686;37.628;2023-05-10T16:07:34;13.85;67.78
76857;DHT22;69705;44.686;37.628;2023-05-10T16:10:01;13.77;66.36
76857;DHT22;69705;44.686;37.628;2023-05-10T16:12:29;13.66;65.33
76857;DHT22;69705;44.686;37.628;2023-05-10T16:14:56;13.61;67.68
76857;DHT22;69705;44.686;37.628;2023-05-10T16:17:23;13.52;68.80
76857;DHT22;69705;44.686;37.628;2023-05-10T16:19:49;13.44;67.17
76857;DHT22;69705;44.686;37.628;2023-05-10T16:22:16;13.35;69.03
76857;DHT22;69705;44.686;37.628;2023-05-10T16:24:43;13.27;68.05
76857;DHT22;69705;44.686;37.628;2023-05-10T16:27:10;13.20;68.35
76857;DHT22;69705;44.686;37.628;2023-05-10T16:29:38;13.10;68.75
76857;DHT22;69705;44.686;37.628;2023-05-10T16:32:04;13.03;67.99
76857;DHT22;69705;44.686;37.628;2023-05-10T16:34:31;13.00;70.47
76857;DHT22;69705;44.686;37.628;2023-05-10T16:36:57;12.94;69.13
76857;DHT22;69705;44.686;37.628;2023-05-10T16:39:24;12.86;70.50
76857;DHT22;69705;44.686;37.628;2023-05-10T16:41:51;12.82;72.77
76857;DHT22;69705;44.686;37.628;2023-05-10T16:44:17;12.73;71.61
76857;DHT22;69705;44.686;37.628;2023-05-10T16:46:44;12.67;72.76
76857;DHT22;69705;44.686;37.628;2023-05-10T16:49:11;12.60;72.32
76857;DHT22;69705;44.686;37.628;2023-05-10T16:51:37;12.51;69.97
76857;DHT22;69705;44.686;37.628;2023-05-10T16:54:04;12.38;72.22
76857;DHT22;69705;44.686;37.628;2023-05-10T16:56:30;12.27;72.96
76857;DHT22;69705;44.686;37.628;2023-05-10T16:58:57;12.20;71.94
76857;DHT22;69705;44.686;37.628;2023-05-10T17:01:23;12.16;72.24
76857;DHT22;69705;44.686;37.628;2023-05-10T17:03:50;12.02;72.25
76857;DHT22;69705;44.686;37.628;2023-05-10T17:06:16;11.90;73.65
76857;DHT22;69705;44.686;37.628;2023-05-10T17:08:43;11.81;74.47
76857;DHT22;69705;44.686;37.628;2023-05-10T17:11:10;11.74;74.37
76857;DHT22;69705;44.686;37.628;2023-05-10T17:13:36;11.64;75.96
76857;DHT22;69705;44.686;37.628;2023-05-10T17:16:03;11.56;74.69
76857;DHT22;69705;44.686;37.628;2023-05-10T17:18:30;11.48;76.47
76857;DHT22;69705;44.686;37.628;2023-05-10T17:20:57;11.46;76.64
76857;DHT22;69705;44.686;37.628;2023-05-10T17:23:24;11.45;76.03
76857;DHT22;69705;44.686;37.628;2023-05-10T17:25:51;11.43;76.87
76857;DHT22;69705;44.686;37.628;2023-05-10T17:28:18;11.38;76.67
76857;DHT22;69705;44.686;37.628;2023-05-10T17:30:45;11.24;77.73
76857;DHT22;69705;44.686;37.628;2023-05-10T17:33:12;11.16;77.85
76857;DHT22;69705;44.686;37.628;2023-05-10T17:35:38;11.12;78.95
76857;DHT22;69705;44.686;37.628;2023-05-10T17:38:05;11.04;79.19
76857;DHT22;69705;44.686;37.628;2023-05-10T17:40:32;10.97;79.14
76857;DHT22;69705;44.686;37.628;2023-05-10T17:42:59;10.87;78.34
76857;DHT22;69705;44.686;37.628;2023-05-10T17:45:26;10.73;78.83
76857;DHT22;69705;44.686;37.628;2023-05-10T17:47:52;10.65;80.00
76857;DHT22;69705;44.686;37.628;2023-05-10T17:50:19;10.52;80.40
76857;DHT22;69705;44.686;37.628;2023-05-10T17:52:46;10.41;80.40
76857;DHT22;69705;44.686;37.628;2023-05-10T17:55:13;10.41;81.81
76857;DHT22;69705;44.686;37.628;2023-05-10T17:57:40;10.30;80.87
76857;DHT22;69705;44.686;37.628;2023-05-10T18:00:07;10.21;81.91
76857;DHT22;69705;44.686;37.628;2023-05-10T18:02:35;10.13;82.44
76857;DHT22;69705;44.686;37.628;2023-05-10T18:05:03;10.09;82.52
76857;DHT22;69705;44.686;37.628;2023-05-10T18:07:31;10.03;82.22
76857;DHT22;69705;44.686;37.628;2023-05-10T18:09:58;9.94;83.14
76857;DHT22;69705;44.686;37.628;2023-05-10T18:12:26;9.95;82.22
76857;DHT22;69705;44.686;37.628;2023-05-10T18:14:53;9.75;83.07
76857;DHT22;69705;44.686;37.628;2023-05-10T18:17:20;9.62;83.84
76857;DHT22;69705;44.686;37.628;2023-05-10T18:19:47;9.54;84.34
76857;DHT22;69705;44.686;37.628;2023-05-10T18:22:14;9.46;84.43
76857;DHT22;69705;44.686;37.628;2023-05-10T18:24:40;9.44;84.84
76857;DHT22;69705;44.686;37.628;2023-05-10T18:27:08;9.42;84.54
76857;DHT22;69705;44.686;37.628;2023-05-10T18:29:34;9.36;85.68
76857;DHT22;69705;44.686;37.628;2023-05-10T18:32:02;9.24;85.65
76857;DHT22;69705;44.686;37.628;2023-05-10T18:34:28;9.21;86.90
76857;DHT22;69705;44.686;37.628;2023-05-10T18:36:55;9.12;86.44
76857;DHT22;69705;44.686;37.628;2023-05-10T18:39:22;9.07;86.06
76857;DHT22;69705;44.686;37.628;2023-05-10T18:41:49;9.03;86.82
76857;DHT22;69705;44.686;37.628;2023-05-10T18:44:15;9.07;86.74
76857;DHT22;69705;44.686;37.628;2023-05-10T18:46:43;9.05;86.88
76857;DHT22;69705;44.686;37.628;2023-05-10T18:49:10;9.05;86.82
76857;DHT22;69705;44.686;37.628;2023-05-10T18:51:36;9.03;86.94
76857;DHT22;69705;44.686;37.628;2023-05-10T18:54:03;9.08;86.67
76857;DHT22;69705;44.686;37.628;2023-05-10T18:56:30;9.08;85.53
76857;DHT22;69705;44.686;37.628;2023-05-10T18:58:56;9.08;85.21
76857;DHT22;69705;44.686;37.628;2023-05-10T19:01:23;9.02;85.42
76857;DHT22;69705;44.686;37.628;2023-05-10T19:03:49;8.97;86.71
76857;DHT22;69705;44.686;37.628;2023-05-10T19:06:16;9.00;85.74
76857;DHT22;69705;44.686;37.628;2023-05-10T19:08:42;9.01;85.99
76857;DHT22;69705;44.686;37.628;2023-05-10T19:11:09;9.02;85.90
76857;DHT22;69705;44.686;37.628;2023-05-10T19:13:35;9.01;85.85
76857;DHT22;69705;44.686;37.628;2023-05-10T19:16:03;8.93;86.33
76857;DHT22;69705;44.686;37.628;2023-05-10T19:18:30;8.85;86.04
76857;DHT22;69705;44.686;37.628;2023-05-10T19:20:57;8.76;85.84
76857;DHT22;69705;44.686;37.628;2023-05-10T19:23:26;8.65;86.93
76857;DHT22;69705;44.686;37.628;2023-05-10T19:25:54;8.59;86.93
76857;DHT22;69705;44.686;37.628;2023-05-10T19:28:21;8.53;87.79
76857;DHT22;69705;44.686;37.628;2023-05-10T19:30:48;8.52;87.48
76857;DHT22;69705;44.686;37.628;2023-05-10T19:33:18;8.42;87.06
76857;DHT22;69705;44.686;37.628;2023-05-10T19:35:46;8.39;87.92